createdAt,value
2018-12-11T00:02:19.125Z,101358.16
2018-12-11T00:04:47.345Z,101352.25
2018-12-11T00:07:15.576Z,101346.78
2018-12-11T00:09:43.816Z,101356.89
2018-12-11T00:12:12.140Z,101351.83
2018-12-11T00:14:40.381Z,101362.80
2018-12-11T00:17:08.576Z,101359.84
2018-12-11T00:19:36.871Z,101360.25
2018-12-11T00:22:05.232Z,101359.41
2018-12-11T00:24:33.436Z,101370.35
2018-12-11T00:27:01.672Z,101377.92
2018-12-11T00:29:29.969Z,101369.08
2018-12-11T00:31:58.189Z,101368.23
2018-12-11T00:34:26.436Z,101368.23
2018-12-11T00:36:54.772Z,101369.48
2018-12-11T00:39:22.942Z,101363.58
2018-12-11T00:41:51.195Z,101377.92
2018-12-11T00:44:19.411Z,101372.81
2018-12-11T00:46:47.663Z,101379.13
2018-12-11T00:49:15.945Z,101378.69
2018-12-11T00:51:44.293Z,101387.13
2018-12-11T00:54:12.977Z,101383.33
2018-12-11T00:56:41.186Z,101384.58
2018-12-11T00:59:09.424Z,101384.58
2018-12-11T01:01:37.765Z,101384.56
2018-12-11T01:04:05.976Z,101392.57
2018-12-11T01:06:34.325Z,101403.92
2018-12-11T01:09:02.565Z,101393.38
2018-12-11T01:11:30.807Z,101396.77
2018-12-11T01:13:59.142Z,101398.02
2018-12-11T01:16:27.498Z,101407.68
2018-12-11T01:18:55.992Z,101406.84
2018-12-11T01:21:24.228Z,101416.95
2018-12-11T01:23:52.430Z,101411.47
2018-12-11T01:26:20.939Z,101414.41
2018-12-11T01:28:49.204Z,101420.30
2018-12-11T01:31:17.409Z,101418.61
2018-12-11T01:33:45.604Z,101419.84
2018-12-11T01:36:13.860Z,101421.09
2018-12-11T01:38:42.070Z,101425.72
2018-12-11T01:41:10.480Z,101424.84
2018-12-11T01:43:38.735Z,101425.28
2018-12-11T01:46:06.936Z,101424.86
2018-12-11T01:48:35.173Z,101433.27
2018-12-11T01:51:03.393Z,101432.84
2018-12-11T01:53:31.596Z,101439.16
2018-12-11T01:55:59.844Z,101439.58
2018-12-11T01:58:28.040Z,101437.45
2018-12-11T02:00:56.344Z,101437.44
2018-12-11T02:03:24.546Z,101444.18
2018-12-11T02:05:52.781Z,101453.00
2018-12-11T02:08:20.979Z,101450.05
2018-12-11T02:10:49.229Z,101460.14
2018-12-11T02:13:17.442Z,101462.66
2018-12-11T02:15:45.630Z,101468.95
2018-12-11T02:18:13.920Z,101467.69
2018-12-11T02:20:42.118Z,101477.77
2018-12-11T02:23:10.376Z,101476.52
2018-12-11T02:25:38.568Z,101478.16
2018-12-11T02:28:06.821Z,101486.59
2018-12-11T02:30:35.080Z,101474.77
2018-12-11T02:33:03.380Z,101482.79
2018-12-11T02:35:31.855Z,101485.69
2018-12-11T02:38:00.105Z,101485.25
2018-12-11T02:40:28.325Z,101487.77
2018-12-11T02:42:56.641Z,101487.34
2018-12-11T02:45:24.882Z,101493.66
2018-12-11T02:47:53.095Z,101507.53
2018-12-11T02:50:21.378Z,101499.53
2018-12-11T02:52:49.609Z,101502.88
2018-12-11T02:55:17.817Z,101505.80
2018-12-11T02:57:46.088Z,101505.73
2018-12-11T03:00:14.382Z,101501.12
2018-12-11T03:02:42.589Z,101516.27
2018-12-11T03:05:10.923Z,101517.92
2018-12-11T03:07:39.279Z,101517.48
2018-12-11T03:10:07.806Z,101517.48
2018-12-11T03:12:36.003Z,101517.05
2018-12-11T03:15:04.774Z,101518.69
2018-12-11T03:17:33.092Z,101514.07
2018-12-11T03:20:01.404Z,101528.36
2018-12-11T03:22:29.699Z,101532.17
2018-12-11T03:24:57.927Z,101532.98
2018-12-11T03:27:27.408Z,101541.38
2018-12-11T03:29:55.685Z,101542.23
2018-12-11T03:32:23.889Z,101543.87
2018-12-11T03:34:52.112Z,101537.09
2018-12-11T03:37:20.548Z,101545.53
2018-12-11T03:39:48.744Z,101551.41
2018-12-11T03:42:16.982Z,101556.44
2018-12-11T03:44:45.264Z,101550.52
2018-12-11T03:47:13.518Z,101551.77
2018-12-11T03:49:41.734Z,101552.60
2018-12-11T03:52:09.936Z,101542.08
2018-12-11T03:54:38.184Z,101550.02
2018-12-11T03:57:06.387Z,101551.27
2018-12-11T03:59:34.615Z,101553.78
2018-12-11T04:02:03.165Z,101555.42
2018-12-11T04:04:31.400Z,101553.69
2018-12-11T04:06:59.679Z,101557.48
2018-12-11T04:09:27.990Z,101551.19
2018-12-11T04:11:56.537Z,101558.73
2018-12-11T04:14:25.274Z,101555.78
2018-12-11T04:16:53.609Z,101563.77
2018-12-11T04:19:21.820Z,101572.59
2018-12-11T04:21:50.058Z,101574.69
2018-12-11T04:24:18.268Z,101574.70
2018-12-11T04:26:46.498Z,101577.64
2018-12-11T04:29:14.751Z,101573.41
2018-12-11T04:31:43.029Z,101577.98
2018-12-11T04:34:11.236Z,101596.91
2018-12-11T04:36:39.446Z,101592.25
2018-12-11T04:39:07.890Z,101599.39
2018-12-11T04:41:36.114Z,101600.61
2018-12-11T04:44:04.328Z,101603.98
2018-12-11T04:46:32.592Z,101600.65
2018-12-11T04:49:00.805Z,101606.06
2018-12-11T04:51:29.014Z,101605.27
2018-12-11T04:53:57.272Z,101610.33
2018-12-11T04:56:25.468Z,101605.27
2018-12-11T04:58:53.684Z,101613.24
2018-12-11T05:01:21.932Z,101617.48
2018-12-11T05:03:50.486Z,101616.59
2018-12-11T05:06:18.817Z,101610.70
2018-12-11T05:08:47.070Z,101618.66
2018-12-11T05:11:15.265Z,101616.51
2018-12-11T05:13:43.512Z,101619.05
2018-12-11T05:16:11.741Z,101621.58
2018-12-11T05:18:39.944Z,101614.01
2018-12-11T05:21:08.211Z,101619.02
2018-12-11T05:23:36.412Z,101625.67
2018-12-11T05:26:04.717Z,101625.23
2018-12-11T05:28:33.033Z,101631.06
2018-12-11T05:31:01.265Z,101633.19
2018-12-11T05:33:29.528Z,101633.19
2018-12-11T05:35:57.784Z,101637.83
2018-12-11T05:38:26.009Z,101649.51
2018-12-11T05:40:54.249Z,101643.62
2018-12-11T05:43:22.468Z,101646.53
2018-12-11T05:45:50.726Z,101649.01
2018-12-11T05:48:18.939Z,101650.70
2018-12-11T05:50:47.233Z,101655.33
2018-12-11T05:53:15.478Z,101654.81
2018-12-11T05:55:43.727Z,101662.39
2018-12-11T05:58:11.945Z,101663.24
2018-12-11T06:00:40.313Z,101668.67
2018-12-11T06:03:08.545Z,101669.06
2018-12-11T06:05:36.784Z,101663.20
2018-12-11T06:08:05.160Z,101672.84
2018-12-11T06:10:33.368Z,101670.76
2018-12-11T06:13:01.589Z,101676.65
2018-12-11T06:15:29.880Z,101680.84
2018-12-11T06:17:58.077Z,101683.78
2018-12-11T06:20:26.280Z,101685.89
2018-12-11T06:22:54.537Z,101681.64
2018-12-11T06:25:22.747Z,101676.09
2018-12-11T06:27:51.180Z,101679.88
2018-12-11T06:30:19.428Z,101681.96
2018-12-11T06:32:47.652Z,101679.44
2018-12-11T06:35:15.906Z,101676.48
2018-12-11T06:37:44.120Z,101681.52
2018-12-11T06:40:12.480Z,101689.04
2018-12-11T06:42:40.684Z,101693.20
2018-12-11T06:45:09.017Z,101696.16
2018-12-11T06:47:37.277Z,101701.59
2018-12-11T06:50:06.816Z,101699.51
2018-12-11T06:52:35.036Z,101705.78
2018-12-11T06:55:03.401Z,101713.33
2018-12-11T06:57:32.499Z,101706.15
2018-12-11T07:00:00.762Z,101715.37
2018-12-11T07:02:29.084Z,101714.14
2018-12-11T07:04:57.296Z,101721.25
2018-12-11T07:07:25.537Z,101730.09
2018-12-11T07:09:53.796Z,101721.27
2018-12-11T07:12:22.047Z,101730.55
2018-12-11T07:14:50.240Z,101736.88
2018-12-11T07:17:18.448Z,101742.84
2018-12-11T07:19:46.672Z,101731.92
2018-12-11T07:22:14.907Z,101735.70
2018-12-11T07:24:43.146Z,101735.70
2018-12-11T07:27:11.480Z,101741.59
2018-12-11T07:29:39.733Z,101744.47
2018-12-11T07:32:07.965Z,101744.11
2018-12-11T07:34:36.193Z,101755.56
2018-12-11T07:37:04.775Z,101750.52
2018-12-11T07:39:32.971Z,101763.02
2018-12-11T07:42:01.249Z,101763.48
2018-12-11T07:44:29.456Z,101775.70
2018-12-11T07:46:57.655Z,101780.69
2018-12-11T07:49:25.892Z,101773.48
2018-12-11T07:51:54.133Z,101773.08
2018-12-11T07:54:22.374Z,101778.91
2018-12-11T07:56:50.567Z,101772.17
2018-12-11T07:59:18.816Z,101779.33
2018-12-11T08:01:47.117Z,101785.22
2018-12-11T08:04:15.456Z,101786.42
2018-12-11T08:06:43.660Z,101781.38
2018-12-11T08:09:11.944Z,101786.45
2018-12-11T08:11:40.189Z,101793.59
2018-12-11T08:14:08.464Z,101799.91
2018-12-11T08:16:36.852Z,101799.11
2018-12-11T08:19:05.349Z,101801.59
2018-12-11T08:21:33.612Z,101816.34
2018-12-11T08:24:01.917Z,101816.42
2018-12-11T08:26:30.193Z,101810.09
2018-12-11T08:28:58.444Z,101816.04
2018-12-11T08:31:26.682Z,101818.16
2018-12-11T08:33:54.929Z,101825.38
2018-12-11T08:36:23.172Z,101831.33
2018-12-11T08:38:51.421Z,101829.74
2018-12-11T08:41:19.616Z,101834.76
2018-12-11T08:43:47.808Z,101835.33
2018-12-11T08:46:16.058Z,101838.30
2018-12-11T08:48:44.344Z,101843.83
2018-12-11T08:51:12.580Z,101844.34
2018-12-11T08:53:40.807Z,101840.15
2018-12-11T08:56:09.112Z,101850.73
2018-12-11T08:58:37.318Z,101858.81
2018-12-11T09:01:05.749Z,101858.92
2018-12-11T09:03:33.972Z,101854.20
2018-12-11T09:06:02.329Z,101853.07
2018-12-11T09:08:30.557Z,101856.62
2018-12-11T09:10:58.797Z,101862.66
2018-12-11T09:13:26.992Z,101868.95
2018-12-11T09:15:55.204Z,101870.30
2018-12-11T09:18:23.449Z,101877.10
2018-12-11T09:20:51.644Z,101878.02
2018-12-11T09:23:19.940Z,101877.24
2018-12-11T09:25:48.200Z,101880.66
2018-12-11T09:28:16.444Z,101877.48
2018-12-11T09:30:44.640Z,101880.42
2018-12-11T09:33:12.921Z,101886.56
2018-12-11T09:35:41.244Z,101880.34
2018-12-11T09:38:09.456Z,101901.48
2018-12-11T09:40:37.688Z,101895.58
2018-12-11T09:43:05.900Z,101899.00
2018-12-11T09:45:34.284Z,101896.58
2018-12-11T09:48:02.554Z,101894.09
2018-12-11T09:50:30.984Z,101896.59
2018-12-11T09:52:59.216Z,101910.98
2018-12-11T09:55:27.593Z,101900.51
2018-12-11T09:57:55.797Z,101902.27
2018-12-11T10:00:27.212Z,101898.45
2018-12-11T10:02:54.279Z,101890.93
2018-12-11T10:05:22.636Z,101898.55
2018-12-11T10:07:50.943Z,101904.44
2018-12-11T10:10:19.164Z,101907.51
2018-12-11T10:12:47.357Z,101912.60
2018-12-11T10:15:15.593Z,101919.51
2018-12-11T10:17:43.792Z,101914.07
2018-12-11T10:20:12.744Z,101916.16
2018-12-11T10:22:40.935Z,101917.00
2018-12-11T10:25:09.240Z,101917.09
2018-12-11T10:27:37.484Z,101930.09
2018-12-11T10:30:08.065Z,101919.25
2018-12-11T10:32:36.313Z,101926.08
2018-12-11T10:35:05.006Z,101933.48
2018-12-11T10:37:33.360Z,101917.59
2018-12-11T10:40:01.562Z,101923.06
2018-12-11T10:42:29.840Z,101933.59
2018-12-11T10:44:58.248Z,101932.00
2018-12-11T10:47:26.440Z,101937.78
2018-12-11T10:49:54.652Z,101926.41
2018-12-11T10:52:22.892Z,101929.84
2018-12-11T10:54:51.088Z,101934.50
2018-12-11T10:57:19.452Z,101918.48
2018-12-11T10:59:47.687Z,101925.00
2018-12-11T11:02:21.264Z,101927.49
2018-12-11T11:04:49.532Z,101932.27
2018-12-11T11:07:17.738Z,101940.78
2018-12-11T11:09:46.674Z,101937.55
2018-12-11T11:12:15.128Z,101941.43
2018-12-11T11:14:43.453Z,101940.97
2018-12-11T11:17:11.697Z,101938.17
2018-12-11T11:19:39.904Z,101938.94
2018-12-11T11:22:08.161Z,101942.28
2018-12-11T11:24:36.509Z,101928.77
2018-12-11T11:27:04.832Z,101930.06
2018-12-11T11:29:33.089Z,101945.24
2018-12-11T11:32:01.386Z,101939.88
2018-12-11T11:34:38.485Z,101947.81
2018-12-11T11:37:06.772Z,101952.50
2018-12-11T11:39:35.037Z,101955.78
2018-12-11T11:42:03.348Z,101946.09
2018-12-11T11:44:31.568Z,101950.78
2018-12-11T11:46:59.844Z,101955.03
2018-12-11T11:49:28.405Z,101953.74
2018-12-11T11:51:56.655Z,101961.71
2018-12-11T11:54:24.984Z,101968.09
2018-12-11T11:56:53.680Z,101955.44
2018-12-11T11:59:21.924Z,101972.80
2018-12-11T12:01:50.120Z,101966.94
2018-12-11T12:04:18.377Z,101972.03
2018-12-11T12:06:46.636Z,101963.95
2018-12-11T12:09:14.968Z,101974.53
2018-12-11T12:11:43.780Z,101966.89
2018-12-11T12:14:12.008Z,101964.72
2018-12-11T12:16:40.212Z,101970.17
2018-12-11T12:19:08.463Z,101956.73
2018-12-11T12:21:36.692Z,101967.23
2018-12-11T12:24:05.050Z,101982.40
2018-12-11T12:26:33.293Z,101978.22
2018-12-11T12:29:01.503Z,101984.48
2018-12-11T12:31:29.949Z,101975.11
2018-12-11T12:33:58.228Z,101982.73
2018-12-11T12:36:26.442Z,101989.02
2018-12-11T12:38:54.736Z,101982.78
2018-12-11T12:41:22.969Z,101989.80
2018-12-11T12:43:51.185Z,101980.77
2018-12-11T12:46:19.388Z,101981.96
2018-12-11T12:48:47.641Z,101998.66
2018-12-11T12:51:15.852Z,101999.30
2018-12-11T12:53:44.084Z,102003.05
2018-12-11T12:56:12.297Z,102002.06
2018-12-11T12:58:40.529Z,102003.27
2018-12-11T13:01:08.725Z,102006.81
2018-12-11T13:03:37.268Z,102008.86
2018-12-11T13:06:05.776Z,102017.05
2018-12-11T13:08:33.971Z,102017.48
2018-12-11T13:11:02.211Z,102013.25
2018-12-11T13:13:30.466Z,102017.77
2018-12-11T13:15:58.716Z,102029.89
2018-12-11T13:18:26.933Z,102026.13
2018-12-11T13:20:55.265Z,102031.06
2018-12-11T13:23:23.556Z,102048.31
2018-12-11T13:25:51.780Z,102031.50
2018-12-11T13:28:20.129Z,102040.34
2018-12-11T13:30:48.535Z,102044.13
2018-12-11T13:33:16.764Z,102047.01
2018-12-11T13:35:45.052Z,102061.20
2018-12-11T13:38:13.292Z,102043.98
2018-12-11T13:40:41.871Z,102053.20
2018-12-11T13:43:10.072Z,102054.36
2018-12-11T13:45:38.400Z,102060.84
2018-12-11T13:48:06.910Z,102063.83
2018-12-11T13:50:35.240Z,102067.53
2018-12-11T13:53:03.454Z,102064.48
2018-12-11T13:55:31.697Z,102070.73
2018-12-11T13:57:59.917Z,102069.45
2018-12-11T14:00:28.167Z,102070.32
2018-12-11T14:02:56.404Z,102069.45
2018-12-11T14:05:24.617Z,102074.66
2018-12-11T14:07:52.847Z,102074.64
2018-12-11T14:10:21.084Z,102078.34
2018-12-11T14:12:49.308Z,102075.88
2018-12-11T14:15:17.699Z,102088.00
2018-12-11T14:17:45.893Z,102093.56
2018-12-11T14:20:14.076Z,102085.01
2018-12-11T14:22:42.433Z,102097.31
2018-12-11T14:25:10.767Z,102078.34
2018-12-11T14:27:39.030Z,102088.41
2018-12-11T14:30:11.063Z,102092.59
2018-12-11T14:32:39.717Z,102105.33
2018-12-11T14:35:08.027Z,102104.94
2018-12-11T14:37:36.250Z,102104.14
2018-12-11T14:40:04.985Z,102096.16
2018-12-11T14:42:33.188Z,102105.44
2018-12-11T14:45:01.501Z,102100.75
2018-12-11T14:47:29.749Z,102099.58
2018-12-11T14:49:57.972Z,102099.19
2018-12-11T14:52:26.209Z,102123.66
2018-12-11T14:54:54.457Z,102110.59
2018-12-11T14:57:22.649Z,102120.69
2018-12-11T14:59:50.895Z,102118.20
2018-12-11T15:02:19.117Z,102120.34
2018-12-11T15:04:47.368Z,102113.19
2018-12-11T15:07:15.594Z,102125.84
2018-12-11T15:09:50.303Z,102118.25
2018-12-11T15:12:18.589Z,102123.79
2018-12-11T15:14:46.812Z,102128.02
2018-12-11T15:17:15.116Z,102125.92
2018-12-11T15:19:43.336Z,102140.23
2018-12-11T15:22:11.700Z,102129.38
2018-12-11T15:24:39.897Z,102129.78
2018-12-11T15:27:08.128Z,102142.02
2018-12-11T15:29:36.354Z,102139.52
2018-12-11T15:32:05.393Z,102136.18
2018-12-11T15:34:33.652Z,102138.73
2018-12-11T15:37:01.852Z,102144.18
2018-12-11T15:39:35.593Z,102141.66
2018-12-11T15:42:00.279Z,102144.25
2018-12-11T15:44:28.564Z,102137.05
2018-12-11T15:46:56.808Z,102143.38
2018-12-11T15:49:25.025Z,102140.87
2018-12-11T15:51:53.463Z,102141.28
2018-12-11T15:54:21.713Z,102154.76
2018-12-11T15:56:50.423Z,102149.61
2018-12-11T15:59:18.759Z,102152.14
2018-12-11T16:01:46.965Z,102150.44
2018-12-11T16:04:15.213Z,102152.14
2018-12-11T16:06:43.465Z,102155.91
2018-12-11T16:09:11.951Z,102157.55
2018-12-11T16:11:40.166Z,102154.19
2018-12-11T16:14:08.429Z,102161.39
2018-12-11T16:16:36.648Z,102165.99
2018-12-11T16:19:04.884Z,102167.23
2018-12-11T16:21:33.128Z,102169.78
2018-12-11T16:24:01.318Z,102175.70
2018-12-11T16:26:29.559Z,102181.58
2018-12-11T16:28:57.836Z,102183.21
2018-12-11T16:31:26.087Z,102184.41
2018-12-11T16:33:54.289Z,102183.58
2018-12-11T16:36:22.532Z,102187.28
2018-12-11T16:38:50.893Z,102186.16
2018-12-11T16:41:19.733Z,102186.91
2018-12-11T16:43:47.945Z,102186.08
2018-12-11T16:46:16.269Z,102194.62
2018-12-11T16:48:44.476Z,102210.05
2018-12-11T16:51:12.675Z,102208.16
2018-12-11T16:53:40.994Z,102216.70
2018-12-11T16:56:09.188Z,102225.99
2018-12-11T16:58:37.420Z,102211.72
2018-12-11T17:01:05.620Z,102229.42
2018-12-11T17:03:34.016Z,102221.42
2018-12-11T17:06:02.331Z,102231.20
2018-12-11T17:08:30.562Z,102234.59
2018-12-11T17:10:58.893Z,102241.38
2018-12-11T17:13:27.246Z,102235.92
2018-12-11T17:15:55.484Z,102235.07
2018-12-11T17:18:23.692Z,102247.80
2018-12-11T17:20:52.203Z,102248.21
2018-12-11T17:23:20.460Z,102244.83
2018-12-11T17:25:48.708Z,102253.25
2018-12-11T17:28:16.904Z,102264.97
2018-12-11T17:30:45.260Z,102273.48
2018-12-11T17:33:13.478Z,102260.91
2018-12-11T17:35:41.692Z,102268.91
2018-12-11T17:38:09.928Z,102275.58
2018-12-11T17:40:38.148Z,102269.64
2018-12-11T17:43:06.388Z,102265.58
2018-12-11T17:45:34.644Z,102272.27
2018-12-11T17:48:03.068Z,102278.59
2018-12-11T17:50:31.269Z,102282.36
2018-12-11T17:52:59.508Z,102275.70
2018-12-11T17:55:27.876Z,102278.26
2018-12-11T17:57:56.095Z,102277.84
2018-12-11T18:00:24.441Z,102278.70
2018-12-11T18:02:53.153Z,102288.84
2018-12-11T18:05:21.416Z,102282.95
2018-12-11T18:07:50.501Z,102285.92
2018-12-11T18:10:18.748Z,102285.41
2018-12-11T18:12:46.996Z,102287.55
2018-12-11T18:15:15.235Z,102290.83
2018-12-11T18:17:43.540Z,102281.17
2018-12-11T18:20:11.791Z,102284.53
2018-12-11T18:22:40.086Z,102286.23
2018-12-11T18:25:08.384Z,102297.59
2018-12-11T18:27:36.724Z,102292.95
2018-12-11T18:30:06.317Z,102304.25
2018-12-11T18:32:34.728Z,102308.95
2018-12-11T18:35:03.413Z,102300.92
2018-12-11T18:37:31.615Z,102302.22
2018-12-11T18:39:59.841Z,102306.42
2018-12-11T18:42:28.040Z,102313.55
2018-12-11T18:44:56.272Z,102319.88
2018-12-11T18:47:25.855Z,102319.98
2018-12-11T18:49:54.328Z,102325.95
2018-12-11T18:52:22.564Z,102330.12
2018-12-11T18:54:50.799Z,102327.20
2018-12-11T18:57:19.039Z,102330.18
2018-12-11T18:59:47.320Z,102330.56
2018-12-11T19:02:15.513Z,102338.48
2018-12-11T19:04:43.765Z,102337.72
2018-12-11T19:07:12.444Z,102340.61
2018-12-11T19:09:40.784Z,102351.20
2018-12-11T19:12:09.421Z,102347.81
2018-12-11T19:14:37.678Z,102347.29
2018-12-11T19:17:05.957Z,102342.23
2018-12-11T19:19:34.184Z,102341.84
2018-12-11T19:22:02.481Z,102360.38
2018-12-11T19:24:34.708Z,102356.53
2018-12-11T19:27:02.950Z,102355.32
2018-12-11T19:29:31.275Z,102352.81
2018-12-11T19:31:59.524Z,102354.11
2018-12-11T19:34:27.717Z,102351.55
2018-12-11T19:36:55.911Z,102350.62
2018-12-11T19:39:24.140Z,102346.74
2018-12-11T19:41:52.416Z,102348.03
2018-12-11T19:44:20.684Z,102348.06
2018-12-11T19:46:48.932Z,102350.09
2018-12-11T19:49:17.198Z,102353.01
2018-12-11T19:51:45.492Z,102341.71
2018-12-11T19:54:13.748Z,102348.83
2018-12-11T19:56:42.025Z,102355.21
2018-12-11T19:59:10.342Z,102354.27
2018-12-11T20:01:38.597Z,102358.51
2018-12-11T20:04:07.176Z,102351.83
2018-12-11T20:06:35.409Z,102359.41
2018-12-11T20:09:05.329Z,102361.92
2018-12-11T20:11:33.573Z,102356.45
2018-12-11T20:14:01.800Z,102354.73
2018-12-11T20:16:30.126Z,102360.98
2018-12-11T20:18:58.335Z,102365.22
2018-12-11T20:21:26.608Z,102367.77
2018-12-11T20:23:54.852Z,102364.86
2018-12-11T20:26:23.764Z,102367.69
2018-12-11T20:28:52.049Z,102373.95
2018-12-11T20:31:20.286Z,102370.59
2018-12-11T20:36:29.099Z,102370.59
2018-12-11T20:38:57.348Z,102372.63
2018-12-11T20:41:25.625Z,102373.42
2018-12-11T20:43:54.468Z,102377.51
2018-12-11T20:46:22.762Z,102377.54
2018-12-11T20:48:51.028Z,102372.01
2018-12-11T20:51:19.367Z,102374.89
2018-12-11T20:53:47.624Z,102372.71
2018-12-11T20:56:15.888Z,102378.66
2018-12-11T20:58:44.081Z,102384.50
2018-12-11T21:01:12.297Z,102382.83
2018-12-11T21:03:40.552Z,102386.73
2018-12-11T21:06:08.772Z,102387.21
2018-12-11T21:08:37.144Z,102385.54
2018-12-11T21:11:05.387Z,102392.74
2018-12-11T21:13:33.621Z,102389.30
2018-12-11T21:16:01.924Z,102388.50
2018-12-11T21:18:30.261Z,102391.92
2018-12-11T21:20:58.500Z,102391.36
2018-12-11T21:23:26.993Z,102399.00
2018-12-11T21:25:55.232Z,102399.00
2018-12-11T21:28:23.472Z,102402.80
2018-12-11T21:30:51.780Z,102393.09
2018-12-11T21:33:20.057Z,102399.86
2018-12-11T21:35:48.251Z,102390.98
2018-12-11T21:38:16.557Z,102401.09
2018-12-11T21:40:45.683Z,102404.44
2018-12-11T21:43:13.914Z,102401.86
2018-12-11T21:45:42.132Z,102402.73
2018-12-11T21:48:10.416Z,102402.67
2018-12-11T21:50:38.654Z,102411.91
2018-12-11T21:53:07.022Z,102415.25
2018-12-11T21:55:35.297Z,102409.37
2018-12-11T21:58:03.648Z,102416.42
2018-12-11T22:00:32.060Z,102405.73
2018-12-11T22:03:00.454Z,102407.09
2018-12-11T22:05:28.856Z,102415.03
2018-12-11T22:07:57.090Z,102410.04
2018-12-11T22:10:25.347Z,102421.48
2018-12-11T22:12:53.612Z,102425.66
2018-12-11T22:15:21.852Z,102425.02
2018-12-11T22:17:50.740Z,102417.70
2018-12-11T22:20:18.964Z,102427.82
2018-12-11T22:22:47.276Z,102424.03
2018-12-11T22:25:15.520Z,102425.91
2018-12-11T22:27:43.808Z,102424.27
2018-12-11T22:30:12.037Z,102421.27
2018-12-11T22:32:40.328Z,102417.78
2018-12-11T22:35:08.624Z,102420.69
2018-12-11T22:37:36.856Z,102431.72
2018-12-11T22:40:05.838Z,102430.42
2018-12-11T22:42:34.101Z,102438.06
2018-12-11T22:45:02.393Z,102442.23
2018-12-11T22:47:30.604Z,102438.48
2018-12-11T22:49:58.817Z,102449.75
2018-12-11T22:52:27.229Z,102442.68
2018-12-11T22:54:55.440Z,102443.63
2018-12-11T22:57:23.757Z,102444.35
2018-12-11T22:59:51.997Z,102441.86
2018-12-11T23:02:20.253Z,102457.09
2018-12-11T23:04:48.489Z,102461.09
2018-12-11T23:07:16.780Z,102458.87
2018-12-11T23:09:45.284Z,102463.03
2018-12-11T23:12:13.604Z,102460.55
2018-12-11T23:14:42.500Z,102464.98
2018-12-11T23:17:10.734Z,102474.68
2018-12-11T23:19:39.111Z,102476.02
2018-12-11T23:22:07.348Z,102479.12
2018-12-11T23:24:35.852Z,102481.75
2018-12-11T23:27:04.504Z,102488.14
2018-12-11T23:29:32.721Z,102485.23
2018-12-11T23:32:00.968Z,102483.91
2018-12-11T23:34:29.209Z,102497.60
2018-12-11T23:36:57.516Z,102496.92
2018-12-11T23:39:25.773Z,102497.77
2018-12-11T23:41:53.986Z,102517.89
2018-12-11T23:44:22.313Z,102508.70
2018-12-11T23:46:50.592Z,102505.91
2018-12-11T23:49:18.799Z,102498.80
2018-12-11T23:51:47.152Z,102513.63
2018-12-11T23:54:15.448Z,102506.31
2018-12-11T23:56:43.689Z,102506.34
2018-12-11T23:59:11.975Z,102516.39
